Time;durP1;ratioP1;P1;durP2;ratioP2;P2;SDS_P1;SDS_P2;PMS_P1;PMS_P2;Temp;Humidity;BMP_temperature;BMP_pressure;BME280_temperature;BME280_humidity;BME280_pressure;Samples;Min_cycle;Max_cycle;Signal;HPM_P1;HPM_P2
2024/01/19 00:00:39;;;;;;;34.10;21.53;;;;;;;-144.30;100.00;86414.41;5052380;28;20218;-59
2024/01/19 00:03:06;;;;;;;29.77;19.10;;;;;;;-144.30;100.00;86422.38;5052457;28;20196;-59
2024/01/19 00:05:33;;;;;;;31.60;20.63;;;;;;;-144.30;100.00;86428.31;5052412;28;20193;-59
2024/01/19 00:08:02;;;;;;;33.60;20.03;;;;;;;-144.30;100.00;86366.69;5052572;28;20756;-60
2024/01/19 00:10:30;;;;;;;33.93;20.60;;;;;;;-144.30;100.00;86374.63;5052239;28;20200;-60
2024/01/19 00:12:57;;;;;;;29.97;20.03;;;;;;;-144.30;100.00;86374.63;5052374;28;20200;-59
2024/01/19 00:15:24;;;;;;;29.60;19.73;;;;;;;-144.30;100.00;86394.53;5052200;28;20292;-59
2024/01/19 00:17:51;;;;;;;31.47;20.13;;;;;;;-144.30;100.00;86408.44;5052244;28;20204;-58
2024/01/19 00:20:18;;;;;;;30.37;19.70;;;;;;;-144.30;100.00;86396.50;5052058;28;20206;-58
2024/01/19 00:22:45;;;;;;;28.97;17.87;;;;;;;-144.30;100.00;86402.47;5052623;28;20687;-58
2024/01/19 00:25:13;;;;;;;25.47;18.63;;;;;;;-144.30;100.00;86414.41;5052480;28;20222;-59
2024/01/19 00:27:40;;;;;;;29.57;16.57;;;;;;;-144.30;100.00;86366.69;5051860;28;20242;-61
2024/01/19 00:30:08;;;;;;;24.93;15.10;;;;;;;-144.30;100.00;86368.66;5051283;28;20276;-59
2024/01/19 00:32:35;;;;;;;26.03;16.63;;;;;;;-144.30;100.00;86402.47;5052053;28;20200;-59
2024/01/19 00:35:01;;;;;;;23.10;16.17;;;;;;;-144.30;100.00;86370.66;5052112;28;20210;-59
2024/01/19 00:37:28;;;;;;;26.83;17.03;;;;;;;-144.30;100.00;86380.59;5051787;28;20284;-58
2024/01/19 00:39:55;;;;;;;26.27;16.57;;;;;;;-144.30;100.00;86374.63;5051941;28;20196;-57
2024/01/19 00:42:23;;;;;;;26.07;17.27;;;;;;;-144.30;100.00;86378.63;5051785;28;20200;-60
2024/01/19 00:44:50;;;;;;;21.43;15.53;;;;;;;-144.30;100.00;86372.66;5051986;28;20196;-57
2024/01/19 00:47:17;;;;;;;24.13;16.47;;;;;;;-144.30;100.00;86398.50;5051569;28;20220;-58
2024/01/19 00:49:45;;;;;;;24.10;15.97;;;;;;;-144.30;100.00;86354.75;5052133;28;20284;-58
2024/01/19 00:52:11;;;;;;;25.40;17.50;;;;;;;-144.30;100.00;86374.63;5052063;28;20329;-58
2024/01/19 00:54:38;;;;;;;22.37;15.70;;;;;;;-144.30;100.00;86418.38;5051586;28;20291;-57
2024/01/19 00:57:05;;;;;;;25.13;15.33;;;;;;;-144.30;100.00;86378.63;5052043;28;20275;-59
2024/01/19 00:59:33;;;;;;;24.13;15.33;;;;;;;-144.30;100.00;86416.41;5051366;28;20201;-56
2024/01/19 01:02:00;;;;;;;21.17;15.30;;;;;;;-144.30;100.00;86412.41;5051357;28;20193;-57
2024/01/19 01:04:27;;;;;;;23.27;14.80;;;;;;;-144.30;100.00;86388.56;5051318;28;20201;-58
2024/01/19 01:06:54;;;;;;;24.60;15.03;;;;;;;-144.30;100.00;86380.59;5051200;28;20256;-57
2024/01/19 01:09:21;;;;;;;22.90;15.13;;;;;;;-144.30;100.00;86366.69;5051177;28;20196;-57
2024/01/19 01:11:48;;;;;;;20.17;14.57;;;;;;;-144.30;100.00;86406.44;5051390;28;20196;-57
2024/01/19 01:14:15;;;;;;;19.00;14.07;;;;;;;-144.30;100.00;86382.59;5051326;28;20200;-57
2024/01/19 01:16:43;;;;;;;21.10;15.00;;;;;;;-144.30;100.00;86378.63;5051151;28;20203;-57
2024/01/19 01:19:10;;;;;;;24.20;15.07;;;;;;;-144.30;100.00;86422.38;5051533;28;20587;-57
2024/01/19 01:21:37;;;;;;;19.33;14.53;;;;;;;-144.30;100.00;86372.66;5051185;28;20565;-57
2024/01/19 01:24:04;;;;;;;24.63;14.80;;;;;;;-144.30;100.00;86378.63;5051111;28;20548;-58
2024/01/19 01:26:31;;;;;;;19.87;14.03;;;;;;;-144.30;100.00;86390.53;5050569;28;20197;-57
2024/01/19 01:28:58;;;;;;;21.03;14.37;;;;;;;-144.30;100.00;86354.75;5050907;28;20200;-57
2024/01/19 01:31:25;;;;;;;21.63;14.70;;;;;;;-144.30;100.00;86364.69;5050383;28;20197;-58
2024/01/19 01:33:53;;;;;;;20.37;15.23;;;;;;;-144.30;100.00;86420.38;5050975;28;20615;-58
2024/01/19 01:36:20;;;;;;;28.33;17.20;;;;;;;-144.30;100.00;86370.66;5050659;28;20197;-57
2024/01/19 01:38:47;;;;;;;26.83;17.93;;;;;;;-144.30;100.00;86360.72;5050877;28;20203;-57
2024/01/19 01:41:14;;;;;;;25.13;17.77;;;;;;;-144.30;100.00;86380.59;5050613;28;20203;-57
2024/01/19 01:43:41;;;;;;;29.03;18.83;;;;;;;-144.30;100.00;86376.63;5050541;28;20205;-57
2024/01/19 01:46:08;;;;;;;27.87;18.10;;;;;;;-144.30;100.00;86368.66;5051017;28;20199;-57
2024/01/19 01:48:34;;;;;;;27.90;18.70;;;;;;;-144.30;100.00;86350.78;5050732;28;20249;-57
2024/01/19 01:51:04;;;;;;;32.33;20.40;;;;;;;-144.30;100.00;86376.63;5050712;28;20196;-57
2024/01/19 01:53:32;;;;;;;32.57;19.60;;;;;;;-144.30;100.00;86370.66;5050395;28;20200;-59
2024/01/19 01:56:00;;;;;;;32.33;22.30;;;;;;;-144.30;100.00;86386.56;5050605;28;20199;-57
2024/01/19 01:58:27;;;;;;;40.20;24.00;;;;;;;-144.30;100.00;86269.25;5050086;28;20203;-58
2024/01/19 02:00:54;;;;;;;37.00;23.80;;;;;;;-144.30;100.00;86386.56;5050557;28;20215;-58
2024/01/19 02:03:21;;;;;;;32.47;22.90;;;;;;;-144.30;100.00;86382.59;5050787;28;20196;-58
2024/01/19 02:05:48;;;;;;;34.93;23.13;;;;;;;-144.30;100.00;86410.44;5050368;28;20199;-58
2024/01/19 02:08:16;;;;;;;35.20;24.00;;;;;;;-144.30;100.00;86422.38;5050204;28;20223;-59
2024/01/19 02:10:43;;;;;;;37.33;23.43;;;;;;;-144.30;100.00;86394.53;5050364;28;21070;-59
2024/01/19 02:13:10;;;;;;;38.07;24.20;;;;;;;-144.30;100.00;86406.44;5050691;28;20659;-58
2024/01/19 02:15:37;;;;;;;37.23;23.63;;;;;;;-144.30;100.00;86388.56;5049975;28;20197;-57
2024/01/19 02:18:05;;;;;;;36.90;23.43;;;;;;;-144.30;100.00;86338.84;5050141;28;20200;-57
2024/01/19 02:20:31;;;;;;;35.80;23.20;;;;;;;-144.30;100.00;86430.31;5049924;28;20326;-58
2024/01/19 02:23:01;;;;;;;31.97;22.30;;;;;;;-144.30;100.00;86424.34;5050176;28;20678;-57
2024/01/19 02:25:29;;;;;;;35.67;23.20;;;;;;;-144.30;100.00;86436.28;5049903;28;20196;-59
2024/01/19 02:27:58;;;;;;;32.97;23.13;;;;;;;-144.30;100.00;86438.28;5049922;28;20594;-58
2024/01/19 02:30:25;;;;;;;34.10;22.87;;;;;;;-144.30;100.00;86338.84;5050036;28;20196;-57
2024/01/19 02:32:52;;;;;;;37.17;23.50;;;;;;;-144.30;100.00;86410.44;5049945;28;20201;-57
2024/01/19 02:35:19;;;;;;;37.47;23.30;;;;;;;-144.30;100.00;86390.53;5049966;28;20207;-58
2024/01/19 02:37:46;;;;;;;33.30;21.70;;;;;;;-144.30;100.00;86434.28;5049622;28;20219;-58
2024/01/19 02:40:13;;;;;;;32.57;21.20;;;;;;;-144.30;100.00;86227.50;5049966;28;20205;-58
2024/01/19 02:42:42;;;;;;;31.93;20.87;;;;;;;-144.30;100.00;86362.72;5049605;28;20199;-58
2024/01/19 02:45:09;;;;;;;29.53;19.80;;;;;;;-144.30;100.00;86410.44;5049948;28;20290;-59
2024/01/19 02:47:36;;;;;;;29.93;20.40;;;;;;;-144.30;100.00;86414.41;5049484;28;20235;-60
2024/01/19 02:50:03;;;;;;;30.70;19.47;;;;;;;-144.30;100.00;86434.28;5049730;28;20255;-60
2024/01/19 02:52:30;;;;;;;32.10;20.57;;;;;;;-144.30;100.00;86406.44;5048836;28;20204;-58
2024/01/19 02:54:56;;;;;;;29.77;19.20;;;;;;;-144.30;100.00;86398.50;5049762;28;20204;-58
2024/01/19 02:57:23;;;;;;;28.00;19.17;;;;;;;-144.30;100.00;86404.47;5049760;28;20196;-57
2024/01/19 02:59:51;;;;;;;30.00;19.37;;;;;;;-144.30;100.00;86430.31;5049820;28;20582;-59
2024/01/19 03:02:18;;;;;;;33.00;20.13;;;;;;;-144.30;100.00;86382.59;5049541;28;20203;-58
2024/01/19 03:04:45;;;;;;;28.97;19.63;;;;;;;-144.30;100.00;86416.41;5049709;28;20197;-58
2024/01/19 03:07:12;;;;;;;28.43;20.03;;;;;;;-144.30;100.00;86432.31;5049444;28;20197;-59
2024/01/19 03:09:39;;;;;;;29.30;18.97;;;;;;;-144.30;100.00;86418.38;5049635;28;20592;-60
2024/01/19 03:12:07;;;;;;;30.53;19.57;;;;;;;-144.30;100.00;86440.25;5049598;28;20188;-59
2024/01/19 03:14:34;;;;;;;30.07;19.40;;;;;;;-144.30;100.00;86422.38;5049603;28;20271;-57
2024/01/19 03:17:04;;;;;;;29.23;18.90;;;;;;;-144.30;100.00;86438.28;5049680;28;20239;-58
2024/01/19 03:19:31;;;;;;;31.07;19.40;;;;;;;-144.30;100.00;86450.19;5049235;28;20680;-58
2024/01/19 03:21:58;;;;;;;33.47;19.63;;;;;;;-144.30;100.00;86432.31;5049364;28;20196;-57
2024/01/19 03:24:25;;;;;;;29.33;18.60;;;;;;;-144.30;100.00;86392.53;5049472;28;20204;-58
2024/01/19 03:26:52;;;;;;;32.70;19.93;;;;;;;-144.30;100.00;86412.41;5049578;28;20231;-57
2024/01/19 03:29:20;;;;;;;34.80;20.57;;;;;;;-144.30;100.00;86424.34;5049256;28;20227;-60
2024/01/19 03:31:47;;;;;;;33.03;19.77;;;;;;;-144.30;100.00;86430.31;5049240;28;20638;-59
2024/01/19 03:34:15;;;;;;;28.83;19.60;;;;;;;-144.30;100.00;86442.25;5049657;28;20236;-59
2024/01/19 03:36:42;;;;;;;33.23;19.80;;;;;;;-144.30;100.00;86396.50;5049316;28;20193;-59
2024/01/19 03:39:09;;;;;;;32.20;21.90;;;;;;;-144.30;100.00;86416.41;5049335;28;20193;-60
2024/01/19 03:41:36;;;;;;;35.03;21.03;;;;;;;-144.30;100.00;86410.44;5049256;28;20192;-60
2024/01/19 03:44:03;;;;;;;29.97;19.93;;;;;;;-144.30;100.00;86398.50;5049316;28;20687;-59
2024/01/19 03:46:30;;;;;;;35.17;20.67;;;;;;;-144.30;100.00;86416.41;5049152;28;20201;-59
2024/01/19 03:48:57;;;;;;;35.00;21.20;;;;;;;-144.30;100.00;86412.41;5049135;28;20227;-60
2024/01/19 03:51:25;;;;;;;33.30;20.53;;;;;;;-144.30;100.00;86472.06;5049276;28;20672;-59
2024/01/19 03:53:52;;;;;;;36.83;21.47;;;;;;;-144.30;100.00;86404.47;5049316;28;20193;-60
2024/01/19 03:56:19;;;;;;;30.73;20.17;;;;;;;-144.30;100.00;86462.13;5049444;28;20247;-58
2024/01/19 03:58:46;;;;;;;31.17;20.17;;;;;;;-144.30;100.00;86464.13;5049131;28;20598;-59
2024/01/19 04:01:15;;;;;;;34.63;21.10;;;;;;;-144.30;100.00;86434.28;5049124;28;20586;-59
2024/01/19 04:03:44;;;;;;;35.30;21.47;;;;;;;-144.30;100.00;86448.22;5048874;28;20200;-58
2024/01/19 04:06:11;;;;;;;37.57;22.97;;;;;;;-144.30;100.00;86418.38;5051956;28;20225;-59
2024/01/19 04:08:39;;;;;;;34.00;21.80;;;;;;;-144.30;100.00;86466.09;5052496;28;20216;-59
2024/01/19 04:11:06;;;;;;;35.93;23.50;;;;;;;-144.30;100.00;86434.28;5052535;28;20201;-60
2024/01/19 04:13:33;;;;;;;38.80;24.57;;;;;;;-144.30;100.00;86458.16;5052352;28;20279;-60
2024/01/19 04:16:00;;;;;;;43.97;24.30;;;;;;;-144.30;100.00;86394.53;5052556;28;20203;-59
2024/01/19 04:18:27;;;;;;;37.77;23.60;;;;;;;-144.30;100.00;86456.16;5052276;28;20200;-59
2024/01/19 04:20:54;;;;;;;35.03;23.67;;;;;;;-144.30;100.00;86436.28;5052491;28;20211;-59
2024/01/19 04:23:21;;;;;;;35.50;22.77;;;;;;;-144.30;100.00;86438.28;5052589;28;20197;-60
2024/01/19 04:25:49;;;;;;;37.57;23.27;;;;;;;-144.30;100.00;86410.44;5052397;28;20200;-60
2024/01/19 04:28:16;;;;;;;37.97;24.47;;;;;;;-144.30;100.00;86466.09;5053411;28;20636;-61
2024/01/19 04:30:43;;;;;;;45.63;26.17;;;;;;;-144.30;100.00;86450.19;5071580;28;20198;-60
2024/01/19 04:33:09;;;;;;;37.50;23.67;;;;;;;-144.30;100.00;86472.06;5072354;28;20696;-60
2024/01/19 04:35:36;;;;;;;37.07;24.93;;;;;;;-144.30;100.00;86406.44;5072134;28;20581;-60
2024/01/19 04:38:04;;;;;;;39.20;24.53;;;;;;;-144.30;100.00;86432.31;5072196;28;20192;-60
2024/01/19 04:40:31;;;;;;;38.23;24.07;;;;;;;-144.30;100.00;86440.25;5072038;28;20591;-57
2024/01/19 04:43:00;;;;;;;39.77;24.83;;;;;;;-144.30;100.00;86474.06;5071473;28;20227;-57
2024/01/19 04:45:26;;;;;;;40.03;24.90;;;;;;;-144.30;100.00;86352.75;5065105;28;20210;-58
2024/01/19 04:47:53;;;;;;;42.87;26.17;;;;;;;-144.30;100.00;86474.06;5061588;28;20599;-57
2024/01/19 04:50:20;;;;;;;41.50;25.93;;;;;;;-144.30;100.00;86509.84;5060186;28;20204;-57
2024/01/19 04:52:47;;;;;;;40.97;27.07;;;;;;;-144.30;100.00;86420.38;5059428;28;20196;-57
2024/01/19 04:55:14;;;;;;;42.70;26.73;;;;;;;-144.30;100.00;86468.09;5071056;28;20203;-57
2024/01/19 04:57:41;;;;;;;41.90;26.47;;;;;;;-144.30;100.00;86470.09;5071178;28;20204;-58
2024/01/19 05:00:10;;;;;;;45.60;27.87;;;;;;;-144.30;100.00;86458.16;5058083;28;20222;-58
2024/01/19 05:02:37;;;;;;;46.07;28.17;;;;;;;-144.30;100.00;86478.03;5070675;28;20586;-59
2024/01/19 05:05:05;;;;;;;47.27;30.93;;;;;;;-144.30;100.00;86478.03;5070819;28;20672;-61
2024/01/19 05:07:32;;;;;;;57.83;35.87;;;;;;;-144.30;100.00;86466.09;5070068;28;20279;-60
2024/01/19 05:09:59;;;;;;;62.90;34.10;;;;;;;-144.30;100.00;86474.06;5070114;28;20223;-61
2024/01/19 05:12:26;;;;;;;60.30;33.97;;;;;;;-144.30;100.00;86480.03;5062339;28;20513;-60
2024/01/19 05:14:53;;;;;;;56.70;33.87;;;;;;;-144.30;100.00;86480.03;5070631;28;20198;-59
2024/01/19 05:17:21;;;;;;;56.07;33.67;;;;;;;-144.30;100.00;86521.78;5070495;28;20200;-60
2024/01/19 05:19:48;;;;;;;57.07;33.33;;;;;;;-144.30;100.00;86489.97;5070678;28;20287;-59
2024/01/19 05:22:15;;;;;;;58.47;34.87;;;;;;;-144.30;100.00;86539.69;5070970;28;20203;-56
2024/01/19 05:24:42;;;;;;;54.60;33.83;;;;;;;-144.30;100.00;86486.00;5069565;28;20203;-56
2024/01/19 05:27:09;;;;;;;61.53;36.37;;;;;;;-144.30;100.00;86484.00;5070719;28;20684;-56
2024/01/19 05:29:36;;;;;;;60.80;36.70;;;;;;;-144.30;100.00;86480.03;5077773;28;20636;-56
2024/01/19 05:32:03;;;;;;;58.17;35.43;;;;;;;-144.30;100.00;86529.75;5091100;28;20206;-56
2024/01/19 05:34:31;;;;;;;55.60;34.80;;;;;;;-144.30;100.00;86507.88;5090028;28;20206;-59
2024/01/19 05:36:58;;;;;;;56.60;36.50;;;;;;;-144.30;100.00;86454.19;5090923;28;20217;-59
2024/01/19 05:39:25;;;;;;;63.03;38.07;;;;;;;-144.30;100.00;86509.84;5090987;28;20197;-60
2024/01/19 05:41:52;;;;;;;59.97;36.53;;;;;;;-144.30;100.00;86466.09;5090793;28;20199;-56
2024/01/19 05:44:19;;;;;;;67.57;40.30;;;;;;;-144.30;100.00;86553.59;5091118;28;20282;-59
2024/01/19 05:46:46;;;;;;;76.33;43.03;;;;;;;-144.30;100.00;86521.78;5090888;28;20218;-56
2024/01/19 05:49:13;;;;;;;68.00;39.77;;;;;;;-144.30;100.00;86499.91;5090743;28;20628;-60
2024/01/19 05:51:43;;;;;;;68.00;37.60;;;;;;;-144.30;100.00;86486.00;5090548;28;20201;-58
2024/01/19 05:54:11;;;;;;;58.73;34.70;;;;;;;-144.30;100.00;86521.78;5090913;28;20203;-57
2024/01/19 05:56:38;;;;;;;66.43;34.50;;;;;;;-144.30;100.00;86509.84;5072968;28;20204;-56
2024/01/19 05:59:05;;;;;;;58.30;33.50;;;;;;;-144.30;100.00;86489.97;5050239;28;20288;-56
2024/01/19 06:01:32;;;;;;;59.93;33.60;;;;;;;-144.30;100.00;86519.81;5050164;28;20196;-56
2024/01/19 06:04:00;;;;;;;50.77;32.20;;;;;;;-144.30;100.00;86517.81;5051091;28;20601;-59
2024/01/19 06:06:26;;;;;;;56.00;32.67;;;;;;;-144.30;100.00;86462.13;5050458;28;20791;-59
2024/01/19 06:08:55;;;;;;;52.07;32.23;;;;;;;-144.30;100.00;86537.69;5050082;28;20231;-59
2024/01/19 06:11:22;;;;;;;57.10;34.00;;;;;;;-144.30;100.00;86533.72;5050295;28;20698;-58
2024/01/19 06:13:50;;;;;;;62.67;33.80;;;;;;;-144.30;100.00;86543.66;5050236;28;20192;-59
2024/01/19 06:16:17;;;;;;;65.77;35.20;;;;;;;-144.30;100.00;86553.59;5050195;28;20616;-57
2024/01/19 06:18:44;;;;;;;65.03;34.43;;;;;;;-144.30;100.00;86555.59;5049979;28;20200;-56
2024/01/19 06:21:11;;;;;;;69.27;36.10;;;;;;;-144.30;100.00;86531.72;5050035;28;20197;-59
2024/01/19 06:23:38;;;;;;;69.23;37.53;;;;;;;-144.30;100.00;86507.88;5049976;28;20217;-60
2024/01/19 06:26:10;;;;;;;63.13;37.50;;;;;;;-144.30;100.00;86501.91;5050221;28;20645;-59
2024/01/19 06:28:37;;;;;;;61.20;35.90;;;;;;;-144.30;100.00;86489.97;5048857;28;20270;-59
2024/01/19 06:31:05;;;;;;;60.07;33.57;;;;;;;-144.30;100.00;86501.91;5050141;28;20200;-58
2024/01/19 06:33:31;;;;;;;60.37;34.77;;;;;;;-144.30;100.00;86505.88;5049444;28;20204;-58
2024/01/19 06:35:58;;;;;;;56.43;34.20;;;;;;;-144.30;100.00;86493.94;5050348;28;20582;-59
2024/01/19 06:38:26;;;;;;;62.60;34.33;;;;;;;-144.30;100.00;86362.72;5049970;28;20196;-59
2024/01/19 06:40:53;;;;;;;71.70;38.30;;;;;;;-144.30;100.00;86476.06;5049758;28;20197;-58
2024/01/19 06:43:21;;;;;;;72.50;40.93;;;;;;;-144.30;100.00;86470.09;5049706;28;20680;-59
2024/01/19 06:45:48;;;;;;;64.40;36.13;;;;;;;-144.30;100.00;86430.31;5049541;28;20207;-58
2024/01/19 06:48:15;;;;;;;67.67;39.33;;;;;;;-144.30;100.00;86462.13;5049592;28;20207;-59
2024/01/19 06:50:42;;;;;;;64.47;38.43;;;;;;;-144.30;100.00;86474.06;5049689;28;20693;-58
2024/01/19 06:53:09;;;;;;;67.87;40.43;;;;;;;-144.30;100.00;86426.34;5049703;28;20203;-59
2024/01/19 06:55:36;;;;;;;69.47;40.17;;;;;;;-144.30;100.00;86422.38;5049471;28;20224;-58
2024/01/19 06:58:03;;;;;;;71.80;40.90;;;;;;;-144.30;100.00;86392.53;5049548;28;20207;-60
2024/01/19 07:00:31;;;;;;;66.07;40.50;;;;;;;-144.30;100.00;86388.56;5049340;28;20192;-57
2024/01/19 07:02:59;;;;;;;65.27;40.73;;;;;;;-144.30;100.00;86340.84;5049756;28;20204;-59
2024/01/19 07:05:26;;;;;;;62.93;38.20;;;;;;;-144.30;100.00;86344.81;5049436;28;20654;-59
2024/01/19 07:07:53;;;;;;;61.23;36.90;;;;;;;-144.30;100.00;86358.72;5049518;28;20206;-59
2024/01/19 07:10:21;;;;;;;62.47;36.73;;;;;;;-144.30;100.00;86338.84;5049224;28;20239;-59
2024/01/19 07:12:48;;;;;;;64.43;41.77;;;;;;;-144.30;100.00;86370.66;5049156;28;20227;-59
2024/01/19 07:15:15;;;;;;;95.93;53.73;;;;;;;-144.30;100.00;86328.91;5049253;28;20192;-56
2024/01/19 07:17:43;;;;;;;86.37;51.57;;;;;;;-144.30;100.00;86364.69;5063859;28;20191;-56
2024/01/19 07:20:11;;;;;;;89.70;52.47;;;;;;;-144.30;100.00;86392.53;5069393;28;20794;-57
2024/01/19 07:22:37;;;;;;;92.97;49.97;;;;;;;-144.30;100.00;86360.72;5069175;28;20204;-57
2024/01/19 07:25:05;;;;;;;84.80;49.20;;;;;;;-144.30;100.00;86203.63;5069031;28;20235;-56
2024/01/19 07:27:32;;;;;;;87.93;51.63;;;;;;;-144.30;100.00;86378.63;5068705;28;20319;-56
2024/01/19 07:29:59;;;;;;;93.03;51.87;;;;;;;-144.30;100.00;86346.81;5069222;28;20230;-56
2024/01/19 07:32:26;;;;;;;85.30;47.70;;;;;;;-144.30;100.00;86392.53;5069132;28;20240;-58
2024/01/19 07:34:54;;;;;;;95.37;55.77;;;;;;;-144.30;100.00;86348.78;5069115;28;20668;-60
2024/01/19 07:37:21;;;;;;;127.70;70.33;;;;;;;-144.30;100.00;86338.84;5069268;28;20675;-61
2024/01/19 07:39:48;;;;;;;110.07;57.23;;;;;;;-144.30;100.00;86322.94;5071602;28;20698;-58
2024/01/19 07:42:15;;;;;;;100.53;52.60;;;;;;;-144.30;100.00;86326.91;5073025;28;20214;-58
2024/01/19 07:44:42;;;;;;;83.87;50.13;;;;;;;-144.30;100.00;86318.97;5072793;28;20318;-57
2024/01/19 07:47:09;;;;;;;71.90;44.07;;;;;;;-144.30;100.00;86344.81;5073021;28;20203;-60
2024/01/19 07:49:36;;;;;;;61.57;40.27;;;;;;;-144.30;100.00;86350.78;5072554;28;20219;-60
2024/01/19 07:52:05;;;;;;;64.23;39.63;;;;;;;-144.30;100.00;86303.06;5072973;28;20200;-57
2024/01/19 07:54:32;;;;;;;63.50;38.10;;;;;;;-144.30;100.00;86338.84;5072648;28;20286;-56
2024/01/19 07:56:59;;;;;;;62.47;36.20;;;;;;;-144.30;100.00;86314.97;5072843;28;20196;-56
2024/01/19 07:59:26;;;;;;;54.83;34.37;;;;;;;-144.30;100.00;86287.16;5072729;28;20673;-55
2024/01/19 08:01:53;;;;;;;50.47;32.50;;;;;;;-144.30;100.00;86285.16;5072610;28;20202;-57
2024/01/19 08:04:20;;;;;;;58.63;32.10;;;;;;;-144.30;100.00;86231.47;5072454;28;20200;-56
2024/01/19 08:06:47;;;;;;;52.67;31.30;;;;;;;-144.30;100.00;86287.16;5072444;28;20672;-58
2024/01/19 08:09:15;;;;;;;52.60;32.57;;;;;;;-144.30;100.00;86309.03;5072398;28;20215;-57
2024/01/19 08:11:42;;;;;;;47.77;30.67;;;;;;;-144.30;100.00;86303.06;5072648;28;20284;-57
2024/01/19 08:14:09;;;;;;;55.77;34.50;;;;;;;-144.30;100.00;86277.19;5072557;28;20200;-56
2024/01/19 08:16:36;;;;;;;58.47;33.40;;;;;;;-144.30;100.00;86243.41;5072358;28;20282;-57
2024/01/19 08:19:03;;;;;;;52.67;33.20;;;;;;;-144.30;100.00;86293.09;5072503;28;20667;-56
2024/01/19 08:21:30;;;;;;;55.33;32.83;;;;;;;-144.30;100.00;86235.44;5072099;28;20203;-56
2024/01/19 08:23:57;;;;;;;54.83;32.73;;;;;;;-144.30;100.00;86267.25;5072343;28;20207;-56
2024/01/19 08:26:25;;;;;;;63.63;35.53;;;;;;;-144.30;100.00;86281.19;5072196;28;20204;-57
2024/01/19 08:28:52;;;;;;;64.47;36.73;;;;;;;-144.30;100.00;86231.47;5072058;28;20592;-59
2024/01/19 08:31:19;;;;;;;58.53;35.70;;;;;;;-144.30;100.00;86213.56;5072221;28;20333;-57
2024/01/19 08:33:46;;;;;;;50.67;32.53;;;;;;;-144.30;100.00;86231.47;5071915;28;20196;-57
2024/01/19 08:36:13;;;;;;;42.27;27.47;;;;;;;-144.30;100.00;86167.84;5071946;28;20207;-56
2024/01/19 08:38:39;;;;;;;42.67;28.47;;;;;;;-144.30;100.00;86197.66;5069625;28;20200;-57
2024/01/19 08:41:06;;;;;;;43.67;28.27;;;;;;;-144.30;100.00;86183.75;5072247;28;20192;-56
2024/01/19 08:43:35;;;;;;;46.30;29.33;;;;;;;-144.30;100.00;86179.78;5071904;28;20561;-58
2024/01/19 08:46:03;;;;;;;46.67;30.17;;;;;;;-144.30;100.00;86171.81;5071794;28;20202;-58
2024/01/19 08:48:32;;;;;;;43.20;29.90;;;;;;;-144.30;100.00;86098.25;5069198;28;20285;-59
2024/01/19 08:50:58;;;;;;;47.20;31.17;;;;;;;-144.30;100.00;86128.06;5061399;28;20764;-57
2024/01/19 08:53:26;;;;;;;44.20;31.00;;;;;;;-144.30;100.00;86163.88;5063859;28;20672;-57
2024/01/19 08:55:53;;;;;;;47.20;30.20;;;;;;;-144.30;100.00;86177.78;5053337;28;20250;-58
2024/01/19 08:58:20;;;;;;;46.97;30.93;;;;;;;-144.30;100.00;86122.09;5069308;28;20204;-57
2024/01/19 09:00:48;;;;;;;41.07;27.20;;;;;;;-144.30;100.00;86155.91;5070694;28;20196;-58
2024/01/19 09:03:16;;;;;;;37.40;25.07;;;;;;;-144.30;100.00;86167.84;5061953;28;20200;-57
2024/01/19 09:05:43;;;;;;;35.43;23.10;;;;;;;-144.30;100.00;86116.16;5067770;28;20235;-57
2024/01/19 09:08:10;;;;;;;26.17;17.43;;;;;;;-144.30;100.00;86070.41;5058351;28;20630;-58
2024/01/19 09:10:37;;;;;;;19.90;14.97;;;;;;;-144.30;100.00;86124.09;5051262;28;20220;-58
2024/01/19 09:13:04;;;;;;;17.70;13.20;;;;;;;-144.30;100.00;86100.25;5057775;28;20210;-57
2024/01/19 09:15:31;;;;;;;16.37;13.13;;;;;;;-144.30;100.00;86090.28;5091498;28;20318;-58
2024/01/19 09:17:59;;;;;;;19.47;13.57;;;;;;;-144.30;99.61;86074.38;5091266;28;20195;-57
2024/01/19 09:20:26;;;;;;;16.27;11.53;;;;;;;-144.30;100.00;86080.34;5091674;28;20195;-58
2024/01/19 09:22:53;;;;;;;15.50;11.53;;;;;;;-144.30;100.00;86064.44;5091363;28;20199;-57
2024/01/19 09:25:20;;;;;;;12.87;11.37;;;;;;;-144.30;100.00;86066.44;5091178;28;20191;-57
2024/01/19 09:27:47;;;;;;;15.87;11.33;;;;;;;-144.30;100.00;86038.59;5062410;28;20728;-59
2024/01/19 09:30:16;;;;;;;15.27;11.53;;;;;;;-144.30;100.00;86046.56;5062733;28;20794;-59
2024/01/19 09:32:43;;;;;;;16.33;11.57;;;;;;;-144.30;99.51;85976.97;5062657;28;20657;-58
2024/01/19 09:35:11;;;;;;;14.97;11.37;;;;;;;-144.30;99.15;85961.06;5066410;28;20578;-59
2024/01/19 09:37:38;;;;;;;17.17;12.23;;;;;;;-144.30;97.44;85907.38;5070335;28;20211;-59
2024/01/19 09:40:06;;;;;;;14.13;10.33;;;;;;;-144.30;97.07;85919.31;5063788;28;20201;-57
2024/01/19 09:42:34;;;;;;;17.33;10.93;;;;;;;-144.30;94.90;85976.97;5064402;28;20203;-58
2024/01/19 09:45:03;;;;;;;15.93;11.27;;;;;;;-144.30;95.21;85879.53;5059705;28;20200;-59
2024/01/19 09:47:42;;;;;;;13.03;11.13;;;;;;;-144.30;95.18;85877.53;5050289;28;20288;-59
2024/01/19 09:50:19;;;;;;;12.93;11.03;;;;;;;-144.30;94.36;85899.41;5050891;28;20707;-60
2024/01/19 09:52:51;;;;;;;11.30;10.10;;;;;;;-144.30;93.90;85919.31;5050790;28;20262;-58
2024/01/19 09:55:20;;;;;;;14.60;10.60;;;;;;;-144.30;93.37;85917.31;5050640;28;20581;-59
2024/01/19 09:57:49;;;;;;;12.50;9.97;;;;;;;-144.30;93.21;85883.50;5078828;28;20253;-58
2024/01/19 10:00:17;;;;;;;15.17;10.30;;;;;;;-144.30;93.27;85943.16;5090489;28;20579;-58
2024/01/19 10:02:47;;;;;;;12.07;9.20;;;;;;;-144.30;93.20;85903.41;5089659;28;20203;-58
2024/01/19 10:05:17;;;;;;;16.67;11.53;;;;;;;-144.30;92.88;85937.19;5090706;28;20202;-58
2024/01/19 10:07:45;;;;;;;14.50;10.20;;;;;;;-144.30;92.77;85883.50;5090472;28;20201;-58
2024/01/19 10:10:13;;;;;;;15.40;11.57;;;;;;;-144.30;93.79;85925.25;5090336;28;20227;-58
2024/01/19 10:12:40;;;;;;;15.37;10.30;;;;;;;-144.30;93.17;85921.28;5090673;28;20195;-58
2024/01/19 10:15:11;;;;;;;11.37;9.43;;;;;;;-144.30;92.25;85907.38;5090320;28;20206;-58
2024/01/19 10:17:38;;;;;;;12.80;9.67;;;;;;;-144.30;92.22;85929.25;5089836;28;20199;-59
2024/01/19 10:20:06;;;;;;;13.23;9.53;;;;;;;-144.30;92.32;85945.16;5090216;28;20199;-58
2024/01/19 10:22:34;;;;;;;12.83;9.90;;;;;;;-144.30;92.42;85873.56;5090290;28;20229;-59
2024/01/19 10:25:03;;;;;;;38.80;23.80;;;;;;;-144.30;94.14;85873.56;5090161;28;20202;-59
2024/01/19 10:27:48;;;;;;;41.10;27.60;;;;;;;-144.30;94.95;85897.44;5089907;28;20227;-58
2024/01/19 10:30:17;;;;;;;39.53;28.57;;;;;;;-144.30;95.65;85895.44;5090222;28;20215;-57
2024/01/19 10:32:45;;;;;;;46.90;29.87;;;;;;;-144.30;95.96;85873.56;5089999;28;20195;-59
2024/01/19 10:35:15;;;;;;;47.03;27.60;;;;;;;-144.30;95.97;85889.47;5090075;28;20665;-59
2024/01/19 10:37:44;;;;;;;38.23;26.27;;;;;;;-144.30;96.02;85877.53;5089775;28;20206;-59
2024/01/19 10:40:21;;;;;;;41.80;26.43;;;;;;;-144.30;95.99;85893.44;5089928;28;20206;-57
2024/01/19 10:42:50;;;;;;;36.03;24.97;;;;;;;-144.30;96.17;85738.38;5090033;28;20592;-56
2024/01/19 10:45:19;;;;;;;40.87;24.33;;;;;;;-144.30;96.17;85919.31;5089742;28;20594;-57
2024/01/19 10:47:47;;;;;;;36.70;24.27;;;;;;;-144.30;96.46;85903.41;5089338;28;20207;-57
2024/01/19 10:50:15;;;;;;;35.53;25.73;;;;;;;-144.30;96.20;85849.72;5090261;28;20219;-58
2024/01/19 10:52:43;;;;;;;38.93;25.37;;;;;;;-144.30;96.30;85869.59;5089639;28;20194;-59
2024/01/19 10:55:17;;;;;;;38.63;25.97;;;;;;;-144.30;96.78;85845.75;5089778;28;20206;-58